DUZEAR1 KCWV-KTBR
Flight info
| Callsign | DUZEAR1 |
|---|---|
| Flight time | 0h 23m |
| Altitude | 7000 |
| Route | KCWV/10 N0249F070 DCT JURSA DCT BUPAW DCT AHIDO DCT MAYAR DCT HENUT DCT GEKME DCT CESOR DCT JEXEX DCT MOHON DCT EPEDE DCT KTBR/14 |
| Aircraft | PC12/L-SDE2FGIRWY/SB1 |
Departure
| Time | 2026-05-05 18:10 |
|---|---|
| Airport | Claxton Evans County Airport (KCWV) |
Arrival
| Time | 2026-05-05 18:33 |
|---|---|
| Airport | Statesboro Bulloch County Airport (KTBR) |
| Time | Latitude | Longitude | Altitude | Speed | Heading |
|---|---|---|---|---|---|
| 2026-05-05 18:02 | 32.19371 | -81.87512 | 114 ft | 0 kts | 89° |
| 2026-05-05 18:08 | 32.19371 | -81.87510 | 111 ft | 2 kts | 92° |
| 2026-05-05 18:08 | 32.19406 | -81.87487 | 114 ft | 11 kts | 354° |
| 2026-05-05 18:08 | 32.19429 | -81.87588 | 114 ft | 22 kts | 269° |
| 2026-05-05 18:08 | 32.19427 | -81.87700 | 113 ft | 6 kts | 266° |
| 2026-05-05 18:09 | 32.19469 | -81.87759 | 113 ft | 9 kts | 359° |
| 2026-05-05 18:09 | 32.19493 | -81.87640 | 114 ft | 38 kts | 88° |
| 2026-05-05 18:09 | 32.19503 | -81.87034 | 153 ft | 101 kts | 89° |
| 2026-05-05 18:09 | 32.19508 | -81.86086 | 531 ft | 131 kts | 94° |
| 2026-05-05 18:10 | 32.19526 | -81.84964 | 1415 ft | 133 kts | 92° |
| 2026-05-05 18:10 | 32.19555 | -81.83900 | 2330 ft | 130 kts | 90° |
| 2026-05-05 18:10 | 32.19579 | -81.82803 | 3112 ft | 140 kts | 90° |
| 2026-05-05 18:10 | 32.19603 | -81.81649 | 4014 ft | 142 kts | 91° |
| 2026-05-05 18:11 | 32.19620 | -81.80467 | 4826 ft | 147 kts | 91° |
| 2026-05-05 18:11 | 32.19640 | -81.79252 | 5632 ft | 150 kts | 91° |
| 2026-05-05 18:11 | 32.19661 | -81.78009 | 6475 ft | 154 kts | 90° |
| 2026-05-05 18:11 | 32.19681 | -81.76734 | 6932 ft | 142 kts | 90° |
| 2026-05-05 18:12 | 32.19706 | -81.75443 | 7008 ft | 182 kts | 91° |
| 2026-05-05 18:12 | 32.19728 | -81.73803 | 7019 ft | 217 kts | 90° |
| 2026-05-05 18:12 | 32.19762 | -81.71940 | 7014 ft | 233 kts | 90° |
| 2026-05-05 18:12 | 32.19797 | -81.70002 | 7009 ft | 239 kts | 90° |
| 2026-05-05 18:13 | 32.19831 | -81.68031 | 7000 ft | 241 kts | 90° |
| 2026-05-05 18:13 | 32.19862 | -81.66054 | 6999 ft | 241 kts | 91° |
| 2026-05-05 18:13 | 32.19902 | -81.64084 | 6993 ft | 241 kts | 88° |
| 2026-05-05 18:14 | 32.20254 | -81.62306 | 6985 ft | 242 kts | 70° |
| 2026-05-05 18:14 | 32.21034 | -81.60546 | 6985 ft | 242 kts | 61° |
| 2026-05-05 18:14 | 32.21862 | -81.58821 | 6986 ft | 242 kts | 62° |
| 2026-05-05 18:14 | 32.22735 | -81.57119 | 6991 ft | 243 kts | 53° |
| 2026-05-05 18:15 | 32.23980 | -81.55765 | 6981 ft | 245 kts | 35° |
| 2026-05-05 18:15 | 32.25497 | -81.54931 | 6979 ft | 246 kts | 16° |
| 2026-05-05 18:15 | 32.27185 | -81.54682 | 6982 ft | 245 kts | 358° |
| 2026-05-05 18:15 | 32.28846 | -81.55044 | 6980 ft | 243 kts | 342° |
| 2026-05-05 18:16 | 32.30461 | -81.55642 | 6982 ft | 243 kts | 342° |
| 2026-05-05 18:16 | 32.32085 | -81.56227 | 6989 ft | 245 kts | 342° |
| 2026-05-05 18:16 | 32.33720 | -81.56773 | 6992 ft | 244 kts | 348° |
| 2026-05-05 18:16 | 32.35410 | -81.56971 | 6985 ft | 244 kts | 355° |
| 2026-05-05 18:17 | 32.37102 | -81.57145 | 6992 ft | 244 kts | 353° |
| 2026-05-05 18:17 | 32.38792 | -81.57334 | 6993 ft | 245 kts | 354° |
| 2026-05-05 18:17 | 32.40492 | -81.57517 | 6986 ft | 245 kts | 354° |
| 2026-05-05 18:17 | 32.42162 | -81.57876 | 6985 ft | 244 kts | 342° |
| 2026-05-05 18:18 | 32.43779 | -81.58488 | 6981 ft | 244 kts | 341° |
| 2026-05-05 18:18 | 32.45399 | -81.59076 | 6989 ft | 245 kts | 342° |
| 2026-05-05 18:18 | 32.47036 | -81.59666 | 6986 ft | 245 kts | 342° |
| 2026-05-05 18:18 | 32.48664 | -81.60260 | 6989 ft | 245 kts | 342° |
| 2026-05-05 18:19 | 32.50289 | -81.60856 | 6994 ft | 246 kts | 342° |
| 2026-05-05 18:19 | 32.51921 | -81.61454 | 6987 ft | 245 kts | 342° |
| 2026-05-05 18:19 | 32.53545 | -81.62047 | 6991 ft | 245 kts | 341° |
| 2026-05-05 18:19 | 32.55173 | -81.62642 | 6994 ft | 244 kts | 342° |
| 2026-05-05 18:20 | 32.56778 | -81.63227 | 6999 ft | 246 kts | 342° |
| 2026-05-05 18:20 | 32.57882 | -81.63631 | 6997 ft | 246 kts | 342° |
| 2026-05-05 18:20 | 32.60035 | -81.64450 | 6989 ft | 245 kts | 337° |
| 2026-05-05 18:20 | 32.61469 | -81.65498 | 6995 ft | 242 kts | 320° |
| 2026-05-05 18:21 | 32.62780 | -81.66748 | 7001 ft | 243 kts | 320° |
| 2026-05-05 18:21 | 32.64106 | -81.67990 | 7002 ft | 243 kts | 320° |
| 2026-05-05 18:21 | 32.65431 | -81.69233 | 7011 ft | 243 kts | 320° |
| 2026-05-05 18:21 | 32.66753 | -81.70479 | 7015 ft | 243 kts | 320° |
| 2026-05-05 18:22 | 32.68078 | -81.71725 | 7001 ft | 244 kts | 320° |
| 2026-05-05 18:22 | 32.69407 | -81.72975 | 6995 ft | 240 kts | 320° |
| 2026-05-05 18:22 | 32.70606 | -81.74100 | 6994 ft | 214 kts | 319° |
| 2026-05-05 18:22 | 32.71390 | -81.74844 | 7002 ft | 209 kts | 319° |
| 2026-05-05 18:23 | 32.72356 | -81.76065 | 6991 ft | 204 kts | 300° |
| 2026-05-05 18:23 | 32.72913 | -81.77601 | 7000 ft | 203 kts | 281° |
| 2026-05-05 18:23 | 32.73010 | -81.79237 | 6995 ft | 196 kts | 262° |
| 2026-05-05 18:23 | 32.72736 | -81.80837 | 7012 ft | 200 kts | 255° |
| 2026-05-05 18:24 | 32.72440 | -81.82444 | 6815 ft | 197 kts | 255° |
| 2026-05-05 18:24 | 32.72166 | -81.83973 | 6587 ft | 174 kts | 255° |
| 2026-05-05 18:24 | 32.71894 | -81.85426 | 6374 ft | 187 kts | 255° |
| 2026-05-05 18:24 | 32.71619 | -81.86894 | 6129 ft | 169 kts | 255° |
| 2026-05-05 18:25 | 32.71361 | -81.88290 | 5906 ft | 175 kts | 255° |
| 2026-05-05 18:25 | 32.71143 | -81.89216 | 5752 ft | 171 kts | 245° |
| 2026-05-05 18:25 | 32.70205 | -81.90668 | 5456 ft | 168 kts | 217° |
| 2026-05-05 18:25 | 32.69172 | -81.91312 | 5241 ft | 168 kts | 197° |
| 2026-05-05 18:26 | 32.68027 | -81.91468 | 4997 ft | 165 kts | 176° |
| 2026-05-05 18:26 | 32.66880 | -81.91358 | 4797 ft | 167 kts | 176° |
| 2026-05-05 18:26 | 32.65730 | -81.91268 | 4586 ft | 166 kts | 176° |
| 2026-05-05 18:26 | 32.64584 | -81.91173 | 4343 ft | 164 kts | 175° |
| 2026-05-05 18:27 | 32.63447 | -81.91059 | 4118 ft | 160 kts | 170° |
| 2026-05-05 18:27 | 32.62401 | -81.90567 | 3929 ft | 166 kts | 149° |
| 2026-05-05 18:27 | 32.61531 | -81.89665 | 3727 ft | 172 kts | 135° |
| 2026-05-05 18:27 | 32.60746 | -81.88727 | 3512 ft | 158 kts | 136° |
| 2026-05-05 18:28 | 32.59290 | -81.87002 | 3126 ft | 133 kts | 136° |
| 2026-05-05 18:28 | 32.58641 | -81.86233 | 2913 ft | 142 kts | 136° |
| 2026-05-05 18:28 | 32.57974 | -81.85451 | 2718 ft | 129 kts | 136° |
| 2026-05-05 18:29 | 32.57310 | -81.84666 | 2653 ft | 137 kts | 135° |
| 2026-05-05 18:29 | 32.56611 | -81.83838 | 2390 ft | 134 kts | 135° |
| 2026-05-05 18:29 | 32.56016 | -81.83139 | 2214 ft | 114 kts | 133° |
| 2026-05-05 18:29 | 32.55487 | -81.82522 | 2044 ft | 102 kts | 134° |
| 2026-05-05 18:30 | 32.54988 | -81.81934 | 1907 ft | 99 kts | 136° |
| 2026-05-05 18:30 | 32.54534 | -81.81393 | 1807 ft | 96 kts | 136° |
| 2026-05-05 18:30 | 32.54051 | -81.80816 | 1703 ft | 101 kts | 136° |
| 2026-05-05 18:30 | 32.53553 | -81.80232 | 1571 ft | 98 kts | 133° |
| 2026-05-05 18:31 | 32.53048 | -81.79633 | 1447 ft | 106 kts | 136° |
| 2026-05-05 18:31 | 32.52519 | -81.79016 | 1306 ft | 105 kts | 135° |
| 2026-05-05 18:31 | 32.52005 | -81.78411 | 1154 ft | 103 kts | 135° |
| 2026-05-05 18:31 | 32.51512 | -81.77826 | 1010 ft | 101 kts | 135° |
| 2026-05-05 18:32 | 32.51034 | -81.77266 | 867 ft | 93 kts | 135° |
| 2026-05-05 18:32 | 32.50577 | -81.76728 | 755 ft | 92 kts | 134° |
| 2026-05-05 18:32 | 32.50125 | -81.76185 | 642 ft | 93 kts | 135° |
| 2026-05-05 18:32 | 32.49668 | -81.75659 | 526 ft | 91 kts | 135° |
| 2026-05-05 18:33 | 32.49216 | -81.75121 | 423 ft | 92 kts | 134° |
| 2026-05-05 18:33 | 32.48768 | -81.74594 | 293 ft | 91 kts | 135° |
| 2026-05-05 18:33 | 32.48345 | -81.74097 | 181 ft | 77 kts | 135° |
| 2026-05-05 18:33 | 32.48162 | -81.73883 | 180 ft | 2 kts | 135° |
| 2026-05-05 18:34 | 32.48117 | -81.73850 | 181 ft | 8 kts | 229° |
| 2026-05-05 18:34 | 32.48069 | -81.73902 | 181 ft | 2 kts | 222° |
| 2026-05-05 18:34 | 32.48034 | -81.73967 | 180 ft | 5 kts | 303° |
| 2026-05-05 18:34 | 32.48085 | -81.74031 | 180 ft | 12 kts | 311° |
| 2026-05-05 18:35 | 32.48072 | -81.74088 | 180 ft | 4 kts | 224° |
| 2026-05-05 18:35 | 32.48071 | -81.74126 | 180 ft | 1 kts | 313° |
| 2026-05-05 18:35 | 32.48077 | -81.74133 | 180 ft | 0 kts | 315° |